createdAt,value
2019-02-02T00:02:14.497Z,34.30
2019-02-02T00:05:20.217Z,34.20
2019-02-02T00:08:25.986Z,34.20
2019-02-02T00:11:31.628Z,34.10
2019-02-02T00:14:37.426Z,34.00
2019-02-02T00:17:43.254Z,34.00
2019-02-02T00:20:48.927Z,34.10
2019-02-02T00:23:54.646Z,34.00
2019-02-02T00:27:00.276Z,33.90
2019-02-02T00:30:08.070Z,33.90
2019-02-02T00:33:13.860Z,33.80
2019-02-02T00:36:19.509Z,33.80
2019-02-02T00:39:25.186Z,33.80
2019-02-02T00:42:30.821Z,33.90
2019-02-02T00:45:36.575Z,33.70
2019-02-02T00:49:04.731Z,33.70
2019-02-02T00:57:04.575Z,33.70
2019-02-02T01:01:11.574Z,33.60
2019-02-02T01:05:22.446Z,33.60
2019-02-02T01:09:11.487Z,33.50
2019-02-02T01:13:48.019Z,33.60
2019-02-02T01:17:51.505Z,33.60
2019-02-02T01:21:37.209Z,33.60
2019-02-02T01:28:44.854Z,33.50
2019-02-02T01:31:50.512Z,33.50
2019-02-02T01:35:18.071Z,33.50
2019-02-02T01:38:59.571Z,33.50
2019-02-02T01:42:20.145Z,33.50
2019-02-02T01:46:06.250Z,33.50
2019-02-02T01:49:37.582Z,33.50
2019-02-02T01:53:01.888Z,33.40
2019-02-02T01:56:36.518Z,33.90
2019-02-02T02:09:22.221Z,32.00
2019-02-02T02:12:55.299Z,31.90
2019-02-02T02:17:06.578Z,31.80
2019-02-02T02:24:36.021Z,31.70
2019-02-02T02:28:13.390Z,31.50
2019-02-02T02:31:50.890Z,31.40
2019-02-02T02:36:09.757Z,31.50
2019-02-02T02:39:37.840Z,31.40
2019-02-02T02:43:05.445Z,31.60
2019-02-02T02:48:40.543Z,31.50
2019-02-02T02:50:03.206Z,31.50
2019-02-02T02:53:32.002Z,31.30
2019-02-02T02:57:02.014Z,31.50
2019-02-02T03:00:41.323Z,31.50
2019-02-02T03:03:58.970Z,31.50
2019-02-02T03:07:11.206Z,31.60
2019-02-02T03:10:49.286Z,31.50
2019-02-02T03:14:05.283Z,31.40
2019-02-02T03:17:15.030Z,31.60
2019-02-02T03:20:28.782Z,31.70
2019-02-02T03:24:11.962Z,31.60
2019-02-02T03:31:31.991Z,31.40
2019-02-02T03:34:41.225Z,31.50
2019-02-02T03:37:51.694Z,31.50
2019-02-02T03:41:43.490Z,31.50
2019-02-02T03:47:26.187Z,31.50
2019-02-02T03:49:51.630Z,31.30
2019-02-02T03:53:11.997Z,31.60
2019-02-02T03:56:59.447Z,31.40
2019-02-02T04:00:46.878Z,31.50
2019-02-02T04:04:51.320Z,31.40
2019-02-02T04:08:24.038Z,31.50
2019-02-02T04:16:04.239Z,31.70
2019-02-02T04:19:26.665Z,31.70
2019-02-02T04:45:33.269Z,32.20
2019-02-02T05:06:59.866Z,32.00
2019-02-02T05:46:56.166Z,32.10
2019-02-02T06:17:32.709Z,32.00
2019-02-02T06:48:06.979Z,31.90
2019-02-02T07:44:57.610Z,31.70
2019-02-02T07:48:03.227Z,31.90
2019-02-02T07:51:08.918Z,32.00
2019-02-02T07:54:16.306Z,32.00
2019-02-02T07:57:22.037Z,32.10
2019-02-02T08:00:40.710Z,32.20
2019-02-02T08:03:40.094Z,32.10
2019-02-02T08:06:46.253Z,32.00
2019-02-02T08:09:52.049Z,31.90
2019-02-02T08:12:57.770Z,31.80
2019-02-02T08:16:03.490Z,31.90
2019-02-02T08:19:09.170Z,31.90
2019-02-02T08:22:14.842Z,31.90
2019-02-02T08:25:20.578Z,31.90
2019-02-02T08:28:26.565Z,31.90
2019-02-02T08:31:32.191Z,31.90
2019-02-02T08:34:37.997Z,31.90
2019-02-02T08:37:43.670Z,32.00
2019-02-02T08:40:49.445Z,32.00
2019-02-02T08:43:55.116Z,32.00
2019-02-02T08:47:00.786Z,31.90
2019-02-02T08:50:10.117Z,32.00
2019-02-02T08:53:15.832Z,32.00
2019-02-02T08:56:21.378Z,31.90
2019-02-02T08:59:27.110Z,32.00
2019-02-02T09:02:32.800Z,32.00
2019-02-02T09:05:38.478Z,32.10
2019-02-02T09:08:44.086Z,32.00
2019-02-02T09:11:49.714Z,32.00
2019-02-02T09:14:55.369Z,32.00
2019-02-02T09:18:01.055Z,32.20
2019-02-02T09:21:06.698Z,32.70
2019-02-02T09:24:12.325Z,33.80
2019-02-02T09:27:17.973Z,33.40
2019-02-02T09:30:28.538Z,33.70
2019-02-02T09:33:34.228Z,37.90
2019-02-02T09:36:39.884Z,38.30
2019-02-02T09:39:45.497Z,38.60
2019-02-02T09:42:51.154Z,38.00
2019-02-02T09:45:56.846Z,38.10
2019-02-02T09:49:02.501Z,37.50
2019-02-02T09:52:09.337Z,38.10
2019-02-02T09:55:16.727Z,37.10
2019-02-02T09:58:22.390Z,36.80
2019-02-02T10:01:28.229Z,36.80
2019-02-02T10:04:33.927Z,36.70
2019-02-02T10:07:39.785Z,37.20
2019-02-02T10:10:45.537Z,37.80
2019-02-02T10:13:52.155Z,37.70
2019-02-02T10:16:57.970Z,38.40
2019-02-02T10:20:04.202Z,38.40
2019-02-02T10:23:09.996Z,39.10
2019-02-02T10:26:15.621Z,38.40
2019-02-02T10:29:21.266Z,38.40
2019-02-02T10:32:53.030Z,34.90
2019-02-02T10:36:09.218Z,36.80
2019-02-02T10:39:17.478Z,36.30
2019-02-02T10:42:23.026Z,36.00
2019-02-02T10:45:28.655Z,35.70
2019-02-02T10:48:34.335Z,35.50
2019-02-02T10:51:39.985Z,35.40
2019-02-02T10:54:45.664Z,35.30
2019-02-02T10:57:51.269Z,35.20
2019-02-02T11:00:57.045Z,35.10
2019-02-02T11:04:03.008Z,35.10
2019-02-02T11:07:08.833Z,35.00
2019-02-02T11:10:18.476Z,34.90
2019-02-02T11:13:24.503Z,34.70
2019-02-02T11:16:30.180Z,34.50
2019-02-02T11:19:37.255Z,34.40
2019-02-02T11:22:43.111Z,34.30
2019-02-02T11:25:48.746Z,34.10
2019-02-02T11:28:54.488Z,34.00
2019-02-02T11:32:02.845Z,33.80
2019-02-02T11:35:08.918Z,33.80
2019-02-02T11:38:14.620Z,33.70
2019-02-02T11:41:20.227Z,33.60
2019-02-02T11:44:25.950Z,33.50
2019-02-02T11:47:31.570Z,34.20
2019-02-02T11:50:37.586Z,33.50
2019-02-02T11:53:43.177Z,33.30
2019-02-02T11:56:48.834Z,33.20
2019-02-02T11:59:54.482Z,33.20
2019-02-02T12:03:04.201Z,33.20
2019-02-02T12:06:08.449Z,32.90
2019-02-02T12:09:13.984Z,32.90
2019-02-02T12:12:19.621Z,32.80
2019-02-02T12:15:25.417Z,32.80
2019-02-02T12:18:31.062Z,32.70
2019-02-02T12:21:36.718Z,32.60
2019-02-02T12:24:42.365Z,32.60
2019-02-02T12:27:48.063Z,32.50
2019-02-02T12:30:53.756Z,32.40
2019-02-02T12:33:59.434Z,32.40
2019-02-02T12:37:05.254Z,32.30
2019-02-02T12:40:11.783Z,32.40
2019-02-02T12:43:17.514Z,32.40
2019-02-02T12:46:23.253Z,32.40
2019-02-02T12:49:28.922Z,32.40
2019-02-02T12:52:34.582Z,32.30
2019-02-02T12:55:40.335Z,32.20
2019-02-02T12:58:45.954Z,32.90
2019-02-02T13:01:51.634Z,32.10
2019-02-02T13:04:57.258Z,32.10
2019-02-02T13:08:05.085Z,32.00
2019-02-02T13:11:10.301Z,32.00
2019-02-02T13:14:15.986Z,32.10
2019-02-02T13:17:21.644Z,32.00
2019-02-02T13:20:27.366Z,31.90
2019-02-02T13:23:33.018Z,31.90
2019-02-02T13:26:38.902Z,31.90
2019-02-02T13:29:44.558Z,31.90
2019-02-02T13:32:50.384Z,31.90
2019-02-02T13:35:56.038Z,31.80
2019-02-02T13:39:01.613Z,31.90
2019-02-02T13:42:09.323Z,31.90
2019-02-02T13:45:15.965Z,31.80
2019-02-02T13:48:21.618Z,31.80
2019-02-02T13:51:27.298Z,31.70
2019-02-02T13:54:32.955Z,31.70
2019-02-02T13:57:38.711Z,31.70
2019-02-02T14:00:44.333Z,31.60
2019-02-02T14:03:50.014Z,31.60
2019-02-02T14:06:55.602Z,31.60
2019-02-02T14:10:01.114Z,31.50
2019-02-02T14:13:06.769Z,31.50
2019-02-02T14:16:12.419Z,32.20
2019-02-02T14:19:18.077Z,31.50
2019-02-02T14:22:23.693Z,31.40
2019-02-02T14:25:29.378Z,31.40
2019-02-02T14:28:35.010Z,31.30
2019-02-02T14:31:40.686Z,31.20
2019-02-02T14:34:46.338Z,31.10
2019-02-02T14:37:51.958Z,31.20
2019-02-02T14:40:57.641Z,31.10
2019-02-02T14:44:03.598Z,31.90
2019-02-02T14:47:09.150Z,31.00
2019-02-02T14:50:18.834Z,31.00
2019-02-02T14:53:24.246Z,31.00
2019-02-02T14:56:29.906Z,31.20
2019-02-02T14:59:35.526Z,31.00
2019-02-02T15:02:41.173Z,31.00
2019-02-02T15:05:46.918Z,31.00
2019-02-02T15:08:52.574Z,31.00
2019-02-02T15:11:58.006Z,31.00
2019-02-02T15:15:05.849Z,31.00
2019-02-02T15:18:10.759Z,31.10
2019-02-02T15:21:16.410Z,31.00
2019-02-02T15:24:22.138Z,31.00
2019-02-02T15:27:27.756Z,31.00
2019-02-02T15:30:33.854Z,31.10
2019-02-02T15:33:39.462Z,31.00
2019-02-02T15:36:45.009Z,31.80
2019-02-02T15:39:50.663Z,31.00
2019-02-02T15:42:56.485Z,31.00
2019-02-02T15:46:01.931Z,31.00
2019-02-02T15:49:07.453Z,31.00
2019-02-02T15:52:13.075Z,31.10
2019-02-02T15:55:20.266Z,30.90
2019-02-02T15:58:25.810Z,30.80
2019-02-02T16:01:31.513Z,31.00
2019-02-02T16:04:37.119Z,31.00
2019-02-02T16:07:42.582Z,31.70
2019-02-02T16:10:48.026Z,31.00
2019-02-02T16:13:53.714Z,30.90
2019-02-02T16:16:59.322Z,30.90
2019-02-02T16:20:05.994Z,31.00
2019-02-02T16:23:11.710Z,30.80
2019-02-02T16:26:17.733Z,30.90
2019-02-02T16:29:23.339Z,30.80
2019-02-02T16:32:28.913Z,30.90
2019-02-02T16:35:34.349Z,30.90
2019-02-02T16:38:39.901Z,30.90
2019-02-02T16:41:45.338Z,30.90
2019-02-02T16:44:50.918Z,31.50
2019-02-02T16:47:56.402Z,30.80
2019-02-02T16:51:01.832Z,30.80
2019-02-02T16:54:07.746Z,31.50
2019-02-02T16:57:13.421Z,30.80
2019-02-02T17:00:21.189Z,30.80
2019-02-02T17:03:26.874Z,30.80
2019-02-02T17:06:32.525Z,30.80
2019-02-02T17:09:37.961Z,30.70
2019-02-02T17:12:43.431Z,30.70
2019-02-02T17:15:48.836Z,30.70
2019-02-02T17:18:54.262Z,30.80
2019-02-02T17:21:59.701Z,30.80
2019-02-02T17:25:06.237Z,30.80
2019-02-02T17:28:12.065Z,30.80
2019-02-02T17:31:17.751Z,30.80
2019-02-02T17:34:27.233Z,30.70
2019-02-02T17:37:30.662Z,30.70
2019-02-02T17:40:36.203Z,30.70
2019-02-02T17:43:41.891Z,30.70
2019-02-02T17:46:47.550Z,30.70
2019-02-02T17:49:52.990Z,30.70
2019-02-02T17:52:58.439Z,30.70
2019-02-02T17:56:06.109Z,30.70
2019-02-02T17:59:11.823Z,30.70
2019-02-02T18:02:17.426Z,30.70
2019-02-02T18:05:23.105Z,30.70
2019-02-02T18:08:28.758Z,30.70
2019-02-02T18:11:34.198Z,30.70
2019-02-02T18:14:39.642Z,30.70
2019-02-02T18:17:45.409Z,30.60
2019-02-02T18:20:51.030Z,30.70
2019-02-02T18:23:56.470Z,30.50
2019-02-02T18:27:02.138Z,30.60
2019-02-02T18:30:11.462Z,30.70
2019-02-02T18:33:16.894Z,30.70
2019-02-02T18:36:22.335Z,30.60
2019-02-02T18:39:27.761Z,30.80
2019-02-02T18:42:33.202Z,30.80
2019-02-02T18:45:38.640Z,30.80
2019-02-02T18:48:44.077Z,30.70
2019-02-02T18:51:49.517Z,30.70
2019-02-02T18:54:54.956Z,30.70
2019-02-02T18:58:00.391Z,30.50
2019-02-02T19:01:06.126Z,30.50
2019-02-02T19:04:11.562Z,30.50
2019-02-02T19:07:17.186Z,30.50
2019-02-02T19:10:28.638Z,30.40
2019-02-02T19:13:34.073Z,30.40
2019-02-02T19:16:39.505Z,30.60
2019-02-02T19:19:45.008Z,30.80
2019-02-02T19:22:50.512Z,30.80
2019-02-02T19:25:55.942Z,30.90
2019-02-02T19:29:01.410Z,30.90
2019-02-02T19:32:06.842Z,31.00
2019-02-02T19:38:19.750Z,30.90
2019-02-02T19:41:25.226Z,30.80
2019-02-02T19:44:30.689Z,30.60
2019-02-02T19:47:36.157Z,30.60
2019-02-02T19:50:41.618Z,30.50
2019-02-02T19:53:47.092Z,30.50
2019-02-02T19:56:52.530Z,30.40
2019-02-02T19:59:58.074Z,30.50
2019-02-02T20:03:03.843Z,31.00
2019-02-02T20:06:09.612Z,30.20
2019-02-02T20:09:15.253Z,30.20
2019-02-02T20:12:20.946Z,30.20
2019-02-02T20:15:26.940Z,30.20
2019-02-02T20:18:32.702Z,30.30
2019-02-02T20:21:38.134Z,30.40
2019-02-02T20:24:43.658Z,30.30
2019-02-02T20:27:49.095Z,30.30
2019-02-02T20:30:54.641Z,30.50
2019-02-02T20:34:00.131Z,30.40
2019-02-02T20:37:05.890Z,30.40
2019-02-02T20:40:13.998Z,30.60
2019-02-02T20:43:19.727Z,30.60
2019-02-02T20:46:25.342Z,30.50
2019-02-02T20:49:30.995Z,30.90
2019-02-02T20:52:46.994Z,30.40
2019-02-02T20:55:45.441Z,30.40
2019-02-02T20:58:51.018Z,30.30
2019-02-02T21:01:56.678Z,30.20
2019-02-02T21:05:02.350Z,30.20
2019-02-02T21:08:09.106Z,30.30
2019-02-02T21:11:14.782Z,30.30
2019-02-02T21:14:20.742Z,30.30
2019-02-02T21:17:26.493Z,30.20
2019-02-02T21:20:32.150Z,30.20
2019-02-02T21:23:37.766Z,30.30
2019-02-02T21:26:43.459Z,30.30
2019-02-02T21:29:49.105Z,30.30
2019-02-02T21:32:54.826Z,30.40
2019-02-02T21:36:04.201Z,30.40
2019-02-02T21:39:09.129Z,30.50
2019-02-02T21:42:15.679Z,30.40
2019-02-02T21:45:21.363Z,30.70
2019-02-02T21:48:27.665Z,30.70
2019-02-02T21:51:33.255Z,30.50
2019-02-02T21:54:38.910Z,30.60
2019-02-02T21:57:45.515Z,31.00
2019-02-02T22:00:51.134Z,31.50
2019-02-02T22:03:56.820Z,31.90
2019-02-02T22:07:05.297Z,32.00
2019-02-02T22:10:11.705Z,32.30
2019-02-02T22:13:17.357Z,32.50
2019-02-02T22:16:23.086Z,32.90
2019-02-02T22:19:28.761Z,33.20
2019-02-02T22:22:35.422Z,33.40
2019-02-02T22:25:41.098Z,33.50
2019-02-02T22:28:46.753Z,33.60
2019-02-02T22:31:52.398Z,33.60
2019-02-02T22:34:59.093Z,33.40
2019-02-02T22:38:05.013Z,33.40
2019-02-02T22:41:10.805Z,34.00
2019-02-02T22:44:16.719Z,34.30
2019-02-02T22:47:22.307Z,34.10
2019-02-02T22:50:28.370Z,34.00
2019-02-02T22:53:34.362Z,33.90
2019-02-02T22:56:40.102Z,33.80
2019-02-02T22:59:47.806Z,33.80
2019-02-02T23:02:53.025Z,33.80
2019-02-02T23:06:42.718Z,33.60
2019-02-02T23:10:25.194Z,33.60
2019-02-02T23:13:58.738Z,33.60
2019-02-02T23:17:05.824Z,33.70
2019-02-02T23:20:11.645Z,34.00
2019-02-02T23:23:17.362Z,34.60
2019-02-02T23:26:22.978Z,34.00
2019-02-02T23:29:28.638Z,34.00
2019-02-02T23:32:34.257Z,33.90
2019-02-02T23:35:40.157Z,33.90
2019-02-02T23:38:45.686Z,33.90
2019-02-02T23:41:51.382Z,33.90
2019-02-02T23:44:57.175Z,34.00
2019-02-02T23:48:02.789Z,34.00
2019-02-02T23:51:08.411Z,34.00
2019-02-02T23:54:14.133Z,33.90
2019-02-02T23:57:20.786Z,33.90
